sensor_id;sensor_type;location;lat;lon;timestamp;temperature;humidity
25300;DHT22;13241;51.208;4.432;2023-05-10T00:02:07;14.30;99.90
25300;DHT22;13241;51.208;4.432;2023-05-10T00:04:34;14.30;99.90
25300;DHT22;13241;51.208;4.432;2023-05-10T00:07:01;14.30;99.90
25300;DHT22;13241;51.208;4.432;2023-05-10T00:09:28;14.30;99.90
25300;DHT22;13241;51.208;4.432;2023-05-10T00:11:55;14.30;99.90
25300;DHT22;13241;51.208;4.432;2023-05-10T00:14:24;14.30;99.90
25300;DHT22;13241;51.208;4.432;2023-05-10T00:16:51;14.30;99.90
25300;DHT22;13241;51.208;4.432;2023-05-10T00:19:19;14.30;99.90
25300;DHT22;13241;51.208;4.432;2023-05-10T00:21:46;14.30;99.90
25300;DHT22;13241;51.208;4.432;2023-05-10T00:24:13;14.30;99.90
25300;DHT22;13241;51.208;4.432;2023-05-10T00:26:40;14.30;99.90
25300;DHT22;13241;51.208;4.432;2023-05-10T00:29:08;14.10;99.90
25300;DHT22;13241;51.208;4.432;2023-05-10T00:31:35;14.10;99.90
25300;DHT22;13241;51.208;4.432;2023-05-10T00:34:02;14.00;99.90
25300;DHT22;13241;51.208;4.432;2023-05-10T00:36:29;14.00;99.90
25300;DHT22;13241;51.208;4.432;2023-05-10T00:38:56;14.00;99.90
25300;DHT22;13241;51.208;4.432;2023-05-10T00:41:23;14.00;99.90
25300;DHT22;13241;51.208;4.432;2023-05-10T00:43:49;14.00;99.90
25300;DHT22;13241;51.208;4.432;2023-05-10T00:46:16;14.00;99.90
25300;DHT22;13241;51.208;4.432;2023-05-10T00:48:43;14.00;99.90
25300;DHT22;13241;51.208;4.432;2023-05-10T00:51:11;14.00;99.90
25300;DHT22;13241;51.208;4.432;2023-05-10T00:53:38;14.10;99.90
25300;DHT22;13241;51.208;4.432;2023-05-10T00:56:05;14.10;99.90
25300;DHT22;13241;51.208;4.432;2023-05-10T00:58:32;14.00;99.90
25300;DHT22;13241;51.208;4.432;2023-05-10T01:00:59;14.10;99.90
25300;DHT22;13241;51.208;4.432;2023-05-10T01:03:27;14.00;99.90
25300;DHT22;13241;51.208;4.432;2023-05-10T01:05:55;13.90;99.90
25300;DHT22;13241;51.208;4.432;2023-05-10T01:08:24;13.90;99.90
25300;DHT22;13241;51.208;4.432;2023-05-10T01:10:51;13.80;99.90
25300;DHT22;13241;51.208;4.432;2023-05-10T01:13:30;13.80;99.90
25300;DHT22;13241;51.208;4.432;2023-05-10T01:15:59;13.80;99.90
25300;DHT22;13241;51.208;4.432;2023-05-10T01:18:29;13.80;99.90
25300;DHT22;13241;51.208;4.432;2023-05-10T01:32:27;13.80;99.90
25300;DHT22;13241;51.208;4.432;2023-05-10T01:38:42;13.80;99.90
25300;DHT22;13241;51.208;4.432;2023-05-10T01:40:47;13.80;99.90
25300;DHT22;13241;51.208;4.432;2023-05-10T01:43:21;13.80;99.90
25300;DHT22;13241;51.208;4.432;2023-05-10T01:46:08;13.90;99.90
25300;DHT22;13241;51.208;4.432;2023-05-10T01:48:41;13.90;99.90
25300;DHT22;13241;51.208;4.432;2023-05-10T01:51:19;13.90;99.90
25300;DHT22;13241;51.208;4.432;2023-05-10T01:53:48;13.90;99.90
25300;DHT22;13241;51.208;4.432;2023-05-10T01:56:19;13.90;99.90
25300;DHT22;13241;51.208;4.432;2023-05-10T01:58:49;13.90;99.90
25300;DHT22;13241;51.208;4.432;2023-05-10T02:01:19;13.80;99.90
25300;DHT22;13241;51.208;4.432;2023-05-10T02:03:49;13.90;99.90
25300;DHT22;13241;51.208;4.432;2023-05-10T02:06:19;13.80;99.90
25300;DHT22;13241;51.208;4.432;2023-05-10T02:08:49;13.80;99.90
25300;DHT22;13241;51.208;4.432;2023-05-10T02:11:17;13.90;99.90
25300;DHT22;13241;51.208;4.432;2023-05-10T02:13:46;13.90;99.90
25300;DHT22;13241;51.208;4.432;2023-05-10T02:16:14;13.90;99.90
25300;DHT22;13241;51.208;4.432;2023-05-10T02:18:43;13.90;99.90
25300;DHT22;13241;51.208;4.432;2023-05-10T02:21:12;13.90;99.90
25300;DHT22;13241;51.208;4.432;2023-05-10T02:23:40;13.90;99.90
25300;DHT22;13241;51.208;4.432;2023-05-10T02:26:08;13.80;99.90
25300;DHT22;13241;51.208;4.432;2023-05-10T02:28:35;13.80;99.90
25300;DHT22;13241;51.208;4.432;2023-05-10T02:31:05;13.90;99.90
25300;DHT22;13241;51.208;4.432;2023-05-10T02:33:34;13.80;99.90
25300;DHT22;13241;51.208;4.432;2023-05-10T02:36:03;13.70;99.90
25300;DHT22;13241;51.208;4.432;2023-05-10T02:38:31;13.80;99.90
25300;DHT22;13241;51.208;4.432;2023-05-10T02:40:59;13.80;99.90
25300;DHT22;13241;51.208;4.432;2023-05-10T02:43:28;13.90;99.90
25300;DHT22;13241;51.208;4.432;2023-05-10T02:45:57;13.90;99.90
25300;DHT22;13241;51.208;4.432;2023-05-10T02:48:25;13.90;99.90
25300;DHT22;13241;51.208;4.432;2023-05-10T02:50:53;13.90;99.90
25300;DHT22;13241;51.208;4.432;2023-05-10T02:53:23;13.90;99.90
25300;DHT22;13241;51.208;4.432;2023-05-10T02:55:55;13.90;99.90
25300;DHT22;13241;51.208;4.432;2023-05-10T02:58:23;14.00;99.90
25300;DHT22;13241;51.208;4.432;2023-05-10T03:00:50;14.00;99.90
25300;DHT22;13241;51.208;4.432;2023-05-10T03:03:17;14.10;99.90
25300;DHT22;13241;51.208;4.432;2023-05-10T03:05:44;14.10;99.90
25300;DHT22;13241;51.208;4.432;2023-05-10T03:08:11;14.00;99.90
25300;DHT22;13241;51.208;4.432;2023-05-10T03:10:45;14.00;99.90
25300;DHT22;13241;51.208;4.432;2023-05-10T03:14:07;14.10;99.90
25300;DHT22;13241;51.208;4.432;2023-05-10T03:16:15;14.10;99.90
25300;DHT22;13241;51.208;4.432;2023-05-10T03:19:03;13.90;99.90
25300;DHT22;13241;51.208;4.432;2023-05-10T03:21:34;14.00;99.90
25300;DHT22;13241;51.208;4.432;2023-05-10T03:24:07;13.90;99.90
25300;DHT22;13241;51.208;4.432;2023-05-10T03:26:37;13.90;99.90
25300;DHT22;13241;51.208;4.432;2023-05-10T03:29:13;13.90;99.90
25300;DHT22;13241;51.208;4.432;2023-05-10T03:31:40;13.80;99.90
25300;DHT22;13241;51.208;4.432;2023-05-10T03:34:07;13.80;99.90
25300;DHT22;13241;51.208;4.432;2023-05-10T03:36:35;13.70;99.90
25300;DHT22;13241;51.208;4.432;2023-05-10T03:39:02;13.80;99.90
25300;DHT22;13241;51.208;4.432;2023-05-10T03:41:30;13.70;99.90
25300;DHT22;13241;51.208;4.432;2023-05-10T03:43:57;13.70;99.90
25300;DHT22;13241;51.208;4.432;2023-05-10T03:46:24;13.60;99.90
25300;DHT22;13241;51.208;4.432;2023-05-10T03:48:52;13.70;99.90
25300;DHT22;13241;51.208;4.432;2023-05-10T03:51:18;13.70;99.90
25300;DHT22;13241;51.208;4.432;2023-05-10T03:53:45;13.60;99.90
25300;DHT22;13241;51.208;4.432;2023-05-10T03:56:12;13.60;99.90
25300;DHT22;13241;51.208;4.432;2023-05-10T03:58:41;13.60;99.90
25300;DHT22;13241;51.208;4.432;2023-05-10T04:01:07;13.60;99.90
25300;DHT22;13241;51.208;4.432;2023-05-10T04:03:34;13.60;99.90
25300;DHT22;13241;51.208;4.432;2023-05-10T04:06:04;13.70;99.90
25300;DHT22;13241;51.208;4.432;2023-05-10T04:08:33;13.70;99.90
25300;DHT22;13241;51.208;4.432;2023-05-10T04:11:10;13.70;99.90
25300;DHT22;13241;51.208;4.432;2023-05-10T04:13:38;13.70;99.90
25300;DHT22;13241;51.208;4.432;2023-05-10T04:16:05;13.70;99.90
25300;DHT22;13241;51.208;4.432;2023-05-10T04:18:32;13.70;99.90
25300;DHT22;13241;51.208;4.432;2023-05-10T04:20:59;13.70;99.90
25300;DHT22;13241;51.208;4.432;2023-05-10T04:23:27;13.70;99.90
25300;DHT22;13241;51.208;4.432;2023-05-10T04:26:01;13.70;99.90
25300;DHT22;13241;51.208;4.432;2023-05-10T04:28:28;13.60;99.90
25300;DHT22;13241;51.208;4.432;2023-05-10T04:31:07;13.50;99.90
25300;DHT22;13241;51.208;4.432;2023-05-10T04:33:35;13.30;99.90
25300;DHT22;13241;51.208;4.432;2023-05-10T04:36:03;13.30;99.90
25300;DHT22;13241;51.208;4.432;2023-05-10T04:38:30;13.20;99.90
25300;DHT22;13241;51.208;4.432;2023-05-10T04:41:10;13.20;99.90
25300;DHT22;13241;51.208;4.432;2023-05-10T04:43:38;13.30;99.90
25300;DHT22;13241;51.208;4.432;2023-05-10T04:46:05;13.30;99.90
25300;DHT22;13241;51.208;4.432;2023-05-10T04:48:34;13.40;99.90
25300;DHT22;13241;51.208;4.432;2023-05-10T04:51:01;13.40;99.90
25300;DHT22;13241;51.208;4.432;2023-05-10T04:53:30;13.50;99.90
25300;DHT22;13241;51.208;4.432;2023-05-10T04:55:56;13.50;99.90
25300;DHT22;13241;51.208;4.432;2023-05-10T04:58:23;13.60;99.90
25300;DHT22;13241;51.208;4.432;2023-05-10T05:00:50;13.50;99.90
25300;DHT22;13241;51.208;4.432;2023-05-10T05:03:17;13.50;99.90
25300;DHT22;13241;51.208;4.432;2023-05-10T05:05:44;13.50;99.90
25300;DHT22;13241;51.208;4.432;2023-05-10T05:08:11;13.80;99.90
25300;DHT22;13241;51.208;4.432;2023-05-10T05:10:38;13.70;99.90
25300;DHT22;13241;51.208;4.432;2023-05-10T05:13:05;13.70;99.90
25300;DHT22;13241;51.208;4.432;2023-05-10T05:15:32;13.70;99.90
25300;DHT22;13241;51.208;4.432;2023-05-10T05:17:59;13.70;99.90
25300;DHT22;13241;51.208;4.432;2023-05-10T05:20:26;13.70;99.90
25300;DHT22;13241;51.208;4.432;2023-05-10T05:22:54;13.70;99.90
25300;DHT22;13241;51.208;4.432;2023-05-10T05:25:20;13.70;99.90
25300;DHT22;13241;51.208;4.432;2023-05-10T05:27:48;13.70;99.90
25300;DHT22;13241;51.208;4.432;2023-05-10T05:30:15;13.70;99.90
25300;DHT22;13241;51.208;4.432;2023-05-10T05:32:43;13.60;99.90
25300;DHT22;13241;51.208;4.432;2023-05-10T05:35:11;13.70;99.90
25300;DHT22;13241;51.208;4.432;2023-05-10T05:37:38;13.70;99.90
25300;DHT22;13241;51.208;4.432;2023-05-10T05:40:06;13.80;99.90
25300;DHT22;13241;51.208;4.432;2023-05-10T05:42:33;13.90;99.90
25300;DHT22;13241;51.208;4.432;2023-05-10T05:45:00;14.30;99.90
25300;DHT22;13241;51.208;4.432;2023-05-10T05:47:27;14.60;99.90
25300;DHT22;13241;51.208;4.432;2023-05-10T05:49:54;14.80;99.90
25300;DHT22;13241;51.208;4.432;2023-05-10T05:52:21;15.00;99.90
25300;DHT22;13241;51.208;4.432;2023-05-10T05:54:48;15.10;99.90
25300;DHT22;13241;51.208;4.432;2023-05-10T05:57:15;15.10;99.90
25300;DHT22;13241;51.208;4.432;2023-05-10T05:59:42;15.00;99.90
25300;DHT22;13241;51.208;4.432;2023-05-10T06:02:10;15.10;99.90
25300;DHT22;13241;51.208;4.432;2023-05-10T06:04:37;15.00;99.90
25300;DHT22;13241;51.208;4.432;2023-05-10T06:07:04;15.00;99.90
25300;DHT22;13241;51.208;4.432;2023-05-10T06:09:31;14.90;99.90
25300;DHT22;13241;51.208;4.432;2023-05-10T06:11:58;14.90;99.90
25300;DHT22;13241;51.208;4.432;2023-05-10T06:14:25;14.80;99.90
25300;DHT22;13241;51.208;4.432;2023-05-10T06:16:52;14.90;99.90
25300;DHT22;13241;51.208;4.432;2023-05-10T06:19:19;15.00;99.90
25300;DHT22;13241;51.208;4.432;2023-05-10T06:21:46;15.00;99.90
25300;DHT22;13241;51.208;4.432;2023-05-10T06:24:13;15.00;99.90
25300;DHT22;13241;51.208;4.432;2023-05-10T06:26:40;15.10;99.90
25300;DHT22;13241;51.208;4.432;2023-05-10T06:29:07;15.30;99.90
25300;DHT22;13241;51.208;4.432;2023-05-10T06:31:34;15.50;99.90
25300;DHT22;13241;51.208;4.432;2023-05-10T06:34:01;15.60;99.90
25300;DHT22;13241;51.208;4.432;2023-05-10T06:36:28;15.60;99.90
25300;DHT22;13241;51.208;4.432;2023-05-10T06:38:55;15.80;99.90
25300;DHT22;13241;51.208;4.432;2023-05-10T06:41:22;15.90;99.90
25300;DHT22;13241;51.208;4.432;2023-05-10T06:43:50;15.60;99.90
25300;DHT22;13241;51.208;4.432;2023-05-10T06:46:17;15.70;99.90
25300;DHT22;13241;51.208;4.432;2023-05-10T06:48:44;15.60;99.90
25300;DHT22;13241;51.208;4.432;2023-05-10T06:51:11;15.80;99.90
25300;DHT22;13241;51.208;4.432;2023-05-10T06:53:38;15.70;99.90
25300;DHT22;13241;51.208;4.432;2023-05-10T06:56:05;15.60;99.90
25300;DHT22;13241;51.208;4.432;2023-05-10T06:58:31;15.70;99.90
25300;DHT22;13241;51.208;4.432;2023-05-10T07:01:03;15.60;99.90
25300;DHT22;13241;51.208;4.432;2023-05-10T07:03:31;15.70;99.90
25300;DHT22;13241;51.208;4.432;2023-05-10T07:06:02;15.60;99.90
25300;DHT22;13241;51.208;4.432;2023-05-10T07:08:34;15.70;99.90
25300;DHT22;13241;51.208;4.432;2023-05-10T07:11:05;15.80;99.90
25300;DHT22;13241;51.208;4.432;2023-05-10T07:13:34;16.00;99.90
25300;DHT22;13241;51.208;4.432;2023-05-10T07:16:01;15.90;99.90
25300;DHT22;13241;51.208;4.432;2023-05-10T07:18:29;16.00;99.90
25300;DHT22;13241;51.208;4.432;2023-05-10T07:20:57;16.00;99.90
25300;DHT22;13241;51.208;4.432;2023-05-10T07:23:24;16.10;99.90
25300;DHT22;13241;51.208;4.432;2023-05-10T07:25:51;16.20;99.90
25300;DHT22;13241;51.208;4.432;2023-05-10T07:28:19;16.10;99.90
25300;DHT22;13241;51.208;4.432;2023-05-10T07:30:46;16.10;99.90
25300;DHT22;13241;51.208;4.432;2023-05-10T07:33:14;16.10;99.90
25300;DHT22;13241;51.208;4.432;2023-05-10T07:35:42;16.00;99.90
25300;DHT22;13241;51.208;4.432;2023-05-10T07:38:10;16.00;99.90
25300;DHT22;13241;51.208;4.432;2023-05-10T07:40:38;16.20;99.90
25300;DHT22;13241;51.208;4.432;2023-05-10T07:43:05;16.50;99.90
25300;DHT22;13241;51.208;4.432;2023-05-10T07:45:33;16.80;99.90
25300;DHT22;13241;51.208;4.432;2023-05-10T07:48:00;17.20;99.90
25300;DHT22;13241;51.208;4.432;2023-05-10T07:50:27;17.60;99.90
25300;DHT22;13241;51.208;4.432;2023-05-10T07:52:54;18.00;99.90
25300;DHT22;13241;51.208;4.432;2023-05-10T07:55:21;17.70;99.90
25300;DHT22;13241;51.208;4.432;2023-05-10T07:57:48;17.20;99.90
25300;DHT22;13241;51.208;4.432;2023-05-10T08:00:20;16.80;99.90
25300;DHT22;13241;51.208;4.432;2023-05-10T08:02:47;17.00;99.90
25300;DHT22;13241;51.208;4.432;2023-05-10T08:05:16;17.40;99.90
25300;DHT22;13241;51.208;4.432;2023-05-10T08:07:43;18.00;99.90
25300;DHT22;13241;51.208;4.432;2023-05-10T08:10:12;18.60;99.90
25300;DHT22;13241;51.208;4.432;2023-05-10T08:12:39;18.90;99.90
25300;DHT22;13241;51.208;4.432;2023-05-10T08:15:06;19.10;99.90
25300;DHT22;13241;51.208;4.432;2023-05-10T08:17:34;19.10;99.90
25300;DHT22;13241;51.208;4.432;2023-05-10T08:20:01;19.00;99.90
25300;DHT22;13241;51.208;4.432;2023-05-10T08:22:28;18.80;99.90
25300;DHT22;13241;51.208;4.432;2023-05-10T08:24:55;18.90;99.90
25300;DHT22;13241;51.208;4.432;2023-05-10T08:27:22;18.60;99.90
25300;DHT22;13241;51.208;4.432;2023-05-10T08:29:49;18.60;99.90
25300;DHT22;13241;51.208;4.432;2023-05-10T08:32:17;18.70;99.90
25300;DHT22;13241;51.208;4.432;2023-05-10T08:34:45;18.90;99.90
25300;DHT22;13241;51.208;4.432;2023-05-10T08:37:12;18.90;99.90
25300;DHT22;13241;51.208;4.432;2023-05-10T08:39:40;18.80;99.90
25300;DHT22;13241;51.208;4.432;2023-05-10T08:42:07;19.00;99.90
25300;DHT22;13241;51.208;4.432;2023-05-10T08:44:36;19.50;99.90
25300;DHT22;13241;51.208;4.432;2023-05-10T08:47:06;19.70;99.90
25300;DHT22;13241;51.208;4.432;2023-05-10T08:49:34;19.60;99.90
25300;DHT22;13241;51.208;4.432;2023-05-10T08:52:03;19.30;99.90
25300;DHT22;13241;51.208;4.432;2023-05-10T08:54:33;19.10;99.90
25300;DHT22;13241;51.208;4.432;2023-05-10T08:57:01;19.00;99.90
25300;DHT22;13241;51.208;4.432;2023-05-10T08:59:28;19.10;99.90
25300;DHT22;13241;51.208;4.432;2023-05-10T09:01:57;18.80;99.90
25300;DHT22;13241;51.208;4.432;2023-05-10T09:04:25;18.60;99.90
25300;DHT22;13241;51.208;4.432;2023-05-10T09:06:55;18.10;99.90
25300;DHT22;13241;51.208;4.432;2023-05-10T09:09:24;17.70;99.90
25300;DHT22;13241;51.208;4.432;2023-05-10T09:11:52;17.40;99.90
25300;DHT22;13241;51.208;4.432;2023-05-10T09:14:19;17.10;99.90
25300;DHT22;13241;51.208;4.432;2023-05-10T09:16:47;17.10;99.90
25300;DHT22;13241;51.208;4.432;2023-05-10T09:19:14;17.20;99.90
25300;DHT22;13241;51.208;4.432;2023-05-10T09:21:42;17.30;99.90
25300;DHT22;13241;51.208;4.432;2023-05-10T09:24:12;17.50;99.90
25300;DHT22;13241;51.208;4.432;2023-05-10T09:26:48;17.70;99.90
25300;DHT22;13241;51.208;4.432;2023-05-10T09:29:15;17.80;99.90
25300;DHT22;13241;51.208;4.432;2023-05-10T09:34:16;17.80;99.90
25300;DHT22;13241;51.208;4.432;2023-05-10T09:36:55;17.80;99.90
25300;DHT22;13241;51.208;4.432;2023-05-10T09:39:38;17.70;99.90
25300;DHT22;13241;51.208;4.432;2023-05-10T09:42:07;17.80;99.90
25300;DHT22;13241;51.208;4.432;2023-05-10T09:44:35;17.80;99.90
25300;DHT22;13241;51.208;4.432;2023-05-10T09:47:02;17.90;99.90
25300;DHT22;13241;51.208;4.432;2023-05-10T09:49:30;18.00;99.90
25300;DHT22;13241;51.208;4.432;2023-05-10T09:52:01;18.20;99.90
25300;DHT22;13241;51.208;4.432;2023-05-10T09:54:29;18.60;99.90
25300;DHT22;13241;51.208;4.432;2023-05-10T09:56:56;18.90;99.90
25300;DHT22;13241;51.208;4.432;2023-05-10T09:59:26;19.10;99.90
25300;DHT22;13241;51.208;4.432;2023-05-10T10:01:59;19.30;99.90
25300;DHT22;13241;51.208;4.432;2023-05-10T10:04:28;19.50;99.90
25300;DHT22;13241;51.208;4.432;2023-05-10T10:07:02;19.80;99.90
25300;DHT22;13241;51.208;4.432;2023-05-10T10:09:29;20.40;99.90
25300;DHT22;13241;51.208;4.432;2023-05-10T10:11:57;20.50;99.90
25300;DHT22;13241;51.208;4.432;2023-05-10T10:14:24;20.30;99.90
25300;DHT22;13241;51.208;4.432;2023-05-10T10:16:52;19.90;99.90
25300;DHT22;13241;51.208;4.432;2023-05-10T10:19:33;19.40;99.90
25300;DHT22;13241;51.208;4.432;2023-05-10T10:22:02;18.90;99.90
25300;DHT22;13241;51.208;4.432;2023-05-10T10:24:29;18.60;99.90
25300;DHT22;13241;51.208;4.432;2023-05-10T10:27:03;18.40;99.90
25300;DHT22;13241;51.208;4.432;2023-05-10T10:29:42;18.30;99.90
25300;DHT22;13241;51.208;4.432;2023-05-10T10:35:21;18.70;99.90
25300;DHT22;13241;51.208;4.432;2023-05-10T10:37:50;18.90;99.90
25300;DHT22;13241;51.208;4.432;2023-05-10T10:42:54;19.20;99.90
25300;DHT22;13241;51.208;4.432;2023-05-10T10:45:22;19.60;99.90
25300;DHT22;13241;51.208;4.432;2023-05-10T10:48:27;19.50;99.90
25300;DHT22;13241;51.208;4.432;2023-05-10T10:50:57;19.20;99.90
25300;DHT22;13241;51.208;4.432;2023-05-10T10:53:27;18.80;99.90
25300;DHT22;13241;51.208;4.432;2023-05-10T10:56:07;18.60;99.90
25300;DHT22;13241;51.208;4.432;2023-05-10T10:58:38;18.30;99.90
25300;DHT22;13241;51.208;4.432;2023-05-10T11:01:16;18.10;99.90
25300;DHT22;13241;51.208;4.432;2023-05-10T11:04:18;18.00;99.90
25300;DHT22;13241;51.208;4.432;2023-05-10T11:06:46;17.80;99.90
25300;DHT22;13241;51.208;4.432;2023-05-10T11:09:13;17.70;99.90
25300;DHT22;13241;51.208;4.432;2023-05-10T11:11:52;17.60;99.90
25300;DHT22;13241;51.208;4.432;2023-05-10T11:14:21;17.50;99.90
25300;DHT22;13241;51.208;4.432;2023-05-10T11:16:49;17.40;99.90
25300;DHT22;13241;51.208;4.432;2023-05-10T11:19:17;17.10;99.90
25300;DHT22;13241;51.208;4.432;2023-05-10T11:21:52;17.00;99.90
25300;DHT22;13241;51.208;4.432;2023-05-10T11:24:38;17.00;99.90
25300;DHT22;13241;51.208;4.432;2023-05-10T11:27:05;17.00;99.90
25300;DHT22;13241;51.208;4.432;2023-05-10T11:29:32;17.10;99.90
25300;DHT22;13241;51.208;4.432;2023-05-10T11:31:59;17.00;99.90
25300;DHT22;13241;51.208;4.432;2023-05-10T11:34:28;17.10;99.90
25300;DHT22;13241;51.208;4.432;2023-05-10T11:36:57;16.90;99.90
25300;DHT22;13241;51.208;4.432;2023-05-10T11:39:29;16.90;99.90
25300;DHT22;13241;51.208;4.432;2023-05-10T11:41:57;16.70;99.90
25300;DHT22;13241;51.208;4.432;2023-05-10T11:44:29;16.60;99.90
25300;DHT22;13241;51.208;4.432;2023-05-10T11:46:59;16.60;99.90
25300;DHT22;13241;51.208;4.432;2023-05-10T11:49:27;16.50;99.90
25300;DHT22;13241;51.208;4.432;2023-05-10T11:52:07;16.40;99.90
25300;DHT22;13241;51.208;4.432;2023-05-10T11:54:34;16.30;99.90
25300;DHT22;13241;51.208;4.432;2023-05-10T11:57:04;16.20;99.90
25300;DHT22;13241;51.208;4.432;2023-05-10T11:59:31;16.20;99.90
25300;DHT22;13241;51.208;4.432;2023-05-10T12:01:58;16.10;99.90
25300;DHT22;13241;51.208;4.432;2023-05-10T12:04:26;16.00;99.90
25300;DHT22;13241;51.208;4.432;2023-05-10T12:06:54;15.90;99.90
25300;DHT22;13241;51.208;4.432;2023-05-10T12:09:21;15.80;99.90
25300;DHT22;13241;51.208;4.432;2023-05-10T12:12:05;15.90;99.90
25300;DHT22;13241;51.208;4.432;2023-05-10T12:14:34;16.00;99.90
25300;DHT22;13241;51.208;4.432;2023-05-10T12:17:01;16.10;99.90
25300;DHT22;13241;51.208;4.432;2023-05-10T12:19:29;16.20;99.90
25300;DHT22;13241;51.208;4.432;2023-05-10T12:22:05;16.40;99.90
25300;DHT22;13241;51.208;4.432;2023-05-10T12:24:36;16.70;99.90
25300;DHT22;13241;51.208;4.432;2023-05-10T12:27:05;17.00;99.90
25300;DHT22;13241;51.208;4.432;2023-05-10T12:29:34;17.30;99.90
25300;DHT22;13241;51.208;4.432;2023-05-10T12:32:01;17.60;99.90
25300;DHT22;13241;51.208;4.432;2023-05-10T12:34:34;17.90;99.90
25300;DHT22;13241;51.208;4.432;2023-05-10T12:37:02;18.10;99.90
25300;DHT22;13241;51.208;4.432;2023-05-10T12:39:43;18.30;99.90
25300;DHT22;13241;51.208;4.432;2023-05-10T12:42:11;18.30;99.90
25300;DHT22;13241;51.208;4.432;2023-05-10T12:44:38;18.30;99.90
25300;DHT22;13241;51.208;4.432;2023-05-10T12:47:06;18.30;99.90
25300;DHT22;13241;51.208;4.432;2023-05-10T12:49:33;18.30;99.90
25300;DHT22;13241;51.208;4.432;2023-05-10T12:52:00;18.40;99.90
25300;DHT22;13241;51.208;4.432;2023-05-10T12:54:27;18.20;99.90
25300;DHT22;13241;51.208;4.432;2023-05-10T12:56:54;18.00;99.90
25300;DHT22;13241;51.208;4.432;2023-05-10T12:59:21;17.80;99.90
25300;DHT22;13241;51.208;4.432;2023-05-10T13:01:49;17.50;99.90
25300;DHT22;13241;51.208;4.432;2023-05-10T13:04:16;17.30;99.90
25300;DHT22;13241;51.208;4.432;2023-05-10T13:06:43;17.20;99.90
25300;DHT22;13241;51.208;4.432;2023-05-10T13:09:10;17.10;99.90
25300;DHT22;13241;51.208;4.432;2023-05-10T13:11:38;17.00;99.90
25300;DHT22;13241;51.208;4.432;2023-05-10T13:14:04;16.90;99.90
25300;DHT22;13241;51.208;4.432;2023-05-10T13:16:32;16.80;99.90
25300;DHT22;13241;51.208;4.432;2023-05-10T13:18:59;16.80;99.90
25300;DHT22;13241;51.208;4.432;2023-05-10T13:21:26;16.80;99.90
25300;DHT22;13241;51.208;4.432;2023-05-10T13:23:53;16.90;99.90
25300;DHT22;13241;51.208;4.432;2023-05-10T13:26:20;16.80;99.90
25300;DHT22;13241;51.208;4.432;2023-05-10T13:28:47;16.80;99.90
25300;DHT22;13241;51.208;4.432;2023-05-10T13:31:15;16.70;99.90
25300;DHT22;13241;51.208;4.432;2023-05-10T13:33:42;16.70;99.90
25300;DHT22;13241;51.208;4.432;2023-05-10T13:36:09;16.70;99.90
25300;DHT22;13241;51.208;4.432;2023-05-10T13:38:36;16.70;99.90
25300;DHT22;13241;51.208;4.432;2023-05-10T13:41:04;16.70;99.90
25300;DHT22;13241;51.208;4.432;2023-05-10T13:43:31;16.60;99.90
25300;DHT22;13241;51.208;4.432;2023-05-10T13:45:58;16.50;99.90
25300;DHT22;13241;51.208;4.432;2023-05-10T13:48:25;16.40;99.90
25300;DHT22;13241;51.208;4.432;2023-05-10T13:50:51;16.30;99.90
25300;DHT22;13241;51.208;4.432;2023-05-10T13:53:18;16.20;99.90
25300;DHT22;13241;51.208;4.432;2023-05-10T13:55:45;16.10;99.90
25300;DHT22;13241;51.208;4.432;2023-05-10T13:58:12;16.00;99.90
25300;DHT22;13241;51.208;4.432;2023-05-10T14:00:39;15.90;99.90
25300;DHT22;13241;51.208;4.432;2023-05-10T14:03:06;15.90;99.90
25300;DHT22;13241;51.208;4.432;2023-05-10T14:05:35;15.80;99.90
25300;DHT22;13241;51.208;4.432;2023-05-10T14:08:02;15.80;99.90
25300;DHT22;13241;51.208;4.432;2023-05-10T14:10:30;15.80;99.90
25300;DHT22;13241;51.208;4.432;2023-05-10T14:12:57;15.90;99.90
25300;DHT22;13241;51.208;4.432;2023-05-10T14:15:24;15.90;99.90
25300;DHT22;13241;51.208;4.432;2023-05-10T14:17:50;16.00;99.90
25300;DHT22;13241;51.208;4.432;2023-05-10T14:20:18;16.10;99.90
25300;DHT22;13241;51.208;4.432;2023-05-10T14:22:45;16.30;99.90
25300;DHT22;13241;51.208;4.432;2023-05-10T14:25:12;16.40;99.90
25300;DHT22;13241;51.208;4.432;2023-05-10T14:27:40;16.50;99.90
25300;DHT22;13241;51.208;4.432;2023-05-10T14:30:07;16.70;99.90
25300;DHT22;13241;51.208;4.432;2023-05-10T14:32:34;16.90;99.90
25300;DHT22;13241;51.208;4.432;2023-05-10T14:35:03;17.00;99.90
25300;DHT22;13241;51.208;4.432;2023-05-10T14:37:30;17.30;99.90
25300;DHT22;13241;51.208;4.432;2023-05-10T14:39:57;17.50;99.90
25300;DHT22;13241;51.208;4.432;2023-05-10T14:42:24;18.00;99.90
25300;DHT22;13241;51.208;4.432;2023-05-10T14:44:51;18.50;99.90
25300;DHT22;13241;51.208;4.432;2023-05-10T14:47:18;19.00;99.90
25300;DHT22;13241;51.208;4.432;2023-05-10T14:49:45;19.40;99.90
25300;DHT22;13241;51.208;4.432;2023-05-10T14:52:12;19.40;99.90
25300;DHT22;13241;51.208;4.432;2023-05-10T14:54:39;19.10;99.90
25300;DHT22;13241;51.208;4.432;2023-05-10T14:57:06;18.80;99.90
25300;DHT22;13241;51.208;4.432;2023-05-10T14:59:33;18.40;99.90
25300;DHT22;13241;51.208;4.432;2023-05-10T15:02:01;17.90;99.90
25300;DHT22;13241;51.208;4.432;2023-05-10T15:04:28;17.30;99.90
25300;DHT22;13241;51.208;4.432;2023-05-10T15:06:55;16.70;99.90
25300;DHT22;13241;51.208;4.432;2023-05-10T15:09:25;16.10;99.90
25300;DHT22;13241;51.208;4.432;2023-05-10T15:11:54;15.60;99.90
25300;DHT22;13241;51.208;4.432;2023-05-10T15:14:22;15.10;99.90
25300;DHT22;13241;51.208;4.432;2023-05-10T15:16:49;14.90;99.90
25300;DHT22;13241;51.208;4.432;2023-05-10T15:19:16;14.70;99.90
25300;DHT22;13241;51.208;4.432;2023-05-10T15:21:43;14.60;99.90
25300;DHT22;13241;51.208;4.432;2023-05-10T15:24:11;14.50;99.90
25300;DHT22;13241;51.208;4.432;2023-05-10T15:26:38;14.50;99.90
25300;DHT22;13241;51.208;4.432;2023-05-10T15:29:05;14.40;99.90
25300;DHT22;13241;51.208;4.432;2023-05-10T15:31:32;14.50;99.90
25300;DHT22;13241;51.208;4.432;2023-05-10T15:34:01;14.50;99.90
25300;DHT22;13241;51.208;4.432;2023-05-10T15:36:28;14.50;99.90
25300;DHT22;13241;51.208;4.432;2023-05-10T15:38:55;14.50;99.90
25300;DHT22;13241;51.208;4.432;2023-05-10T15:41:22;14.50;99.90
25300;DHT22;13241;51.208;4.432;2023-05-10T15:43:50;14.60;99.90
25300;DHT22;13241;51.208;4.432;2023-05-10T15:46:17;14.50;99.90
25300;DHT22;13241;51.208;4.432;2023-05-10T15:48:45;14.60;99.90
25300;DHT22;13241;51.208;4.432;2023-05-10T15:51:13;14.50;99.90
25300;DHT22;13241;51.208;4.432;2023-05-10T15:53:40;14.60;99.90
25300;DHT22;13241;51.208;4.432;2023-05-10T15:56:22;14.60;99.90
25300;DHT22;13241;51.208;4.432;2023-05-10T15:58:49;14.70;99.90
25300;DHT22;13241;51.208;4.432;2023-05-10T16:01:16;14.70;99.90
25300;DHT22;13241;51.208;4.432;2023-05-10T16:03:43;14.70;99.90